sensor_id;sensor_type;location;lat;lon;timestamp;P1;durP1;ratioP1;P2;durP2;ratioP2
39346;SDS011;26262;49.836;6.632;2022-08-21T00:02:15;11.05;;;2.95;;
39346;SDS011;26262;49.836;6.632;2022-08-21T00:04:42;5.13;;;2.70;;
39346;SDS011;26262;49.836;6.632;2022-08-21T00:07:07;3.97;;;2.25;;
39346;SDS011;26262;49.836;6.632;2022-08-21T00:09:33;6.00;;;2.95;;
39346;SDS011;26262;49.836;6.632;2022-08-21T00:11:58;5.00;;;2.65;;
39346;SDS011;26262;49.836;6.632;2022-08-21T00:14:24;5.90;;;2.75;;
39346;SDS011;26262;49.836;6.632;2022-08-21T00:16:49;6.65;;;2.40;;
39346;SDS011;26262;49.836;6.632;2022-08-21T00:19:15;5.50;;;2.67;;
39346;SDS011;26262;49.836;6.632;2022-08-21T00:21:41;9.05;;;3.67;;
39346;SDS011;26262;49.836;6.632;2022-08-21T00:24:06;5.90;;;2.97;;
39346;SDS011;26262;49.836;6.632;2022-08-21T00:26:32;5.60;;;2.83;;
39346;SDS011;26262;49.836;6.632;2022-08-21T00:28:57;5.72;;;2.90;;
39346;SDS011;26262;49.836;6.632;2022-08-21T00:31:23;5.25;;;2.53;;
39346;SDS011;26262;49.836;6.632;2022-08-21T00:33:48;6.55;;;2.97;;
39346;SDS011;26262;49.836;6.632;2022-08-21T00:36:14;7.00;;;3.17;;
39346;SDS011;26262;49.836;6.632;2022-08-21T00:38:40;6.38;;;2.78;;
39346;SDS011;26262;49.836;6.632;2022-08-21T00:41:06;5.85;;;2.70;;
39346;SDS011;26262;49.836;6.632;2022-08-21T00:43:35;6.00;;;3.00;;
39346;SDS011;26262;49.836;6.632;2022-08-21T00:46:03;6.88;;;2.85;;
39346;SDS011;26262;49.836;6.632;2022-08-21T00:48:30;5.10;;;2.70;;
39346;SDS011;26262;49.836;6.632;2022-08-21T00:50:58;7.45;;;3.60;;
39346;SDS011;26262;49.836;6.632;2022-08-21T00:53:28;5.43;;;2.85;;
39346;SDS011;26262;49.836;6.632;2022-08-21T00:55:55;7.50;;;3.05;;
39346;SDS011;26262;49.836;6.632;2022-08-21T00:58:22;5.40;;;2.70;;
39346;SDS011;26262;49.836;6.632;2022-08-21T01:00:51;5.63;;;3.10;;
39346;SDS011;26262;49.836;6.632;2022-08-21T01:03:20;4.50;;;2.50;;
39346;SDS011;26262;49.836;6.632;2022-08-21T01:05:47;6.45;;;3.03;;
39346;SDS011;26262;49.836;6.632;2022-08-21T01:08:13;7.50;;;2.80;;
39346;SDS011;26262;49.836;6.632;2022-08-21T01:10:42;5.28;;;2.72;;
39346;SDS011;26262;49.836;6.632;2022-08-21T01:13:09;4.15;;;2.47;;
39346;SDS011;26262;49.836;6.632;2022-08-21T01:15:37;6.10;;;3.25;;
39346;SDS011;26262;49.836;6.632;2022-08-21T01:18:05;6.50;;;2.53;;
39346;SDS011;26262;49.836;6.632;2022-08-21T01:22:59;5.10;;;3.13;;
39346;SDS011;26262;49.836;6.632;2022-08-21T01:25:26;6.18;;;3.33;;
39346;SDS011;26262;49.836;6.632;2022-08-21T01:27:52;5.18;;;3.13;;
39346;SDS011;26262;49.836;6.632;2022-08-21T01:30:18;4.97;;;2.72;;
39346;SDS011;26262;49.836;6.632;2022-08-21T01:32:46;6.85;;;2.90;;
39346;SDS011;26262;49.836;6.632;2022-08-21T01:35:13;6.28;;;3.10;;
39346;SDS011;26262;49.836;6.632;2022-08-21T01:37:40;4.50;;;2.70;;
39346;SDS011;26262;49.836;6.632;2022-08-21T01:40:07;6.18;;;3.10;;
39346;SDS011;26262;49.836;6.632;2022-08-21T01:42:33;8.23;;;2.95;;
39346;SDS011;26262;49.836;6.632;2022-08-21T01:45:00;6.25;;;2.75;;
39346;SDS011;26262;49.836;6.632;2022-08-21T01:47:25;5.72;;;2.97;;
39346;SDS011;26262;49.836;6.632;2022-08-21T01:49:51;5.20;;;2.92;;
39346;SDS011;26262;49.836;6.632;2022-08-21T01:52:17;5.65;;;2.97;;
39346;SDS011;26262;49.836;6.632;2022-08-21T01:54:43;6.63;;;3.15;;
39346;SDS011;26262;49.836;6.632;2022-08-21T01:57:09;5.25;;;3.22;;
39346;SDS011;26262;49.836;6.632;2022-08-21T01:59:36;8.00;;;3.15;;
39346;SDS011;26262;49.836;6.632;2022-08-21T02:02:02;5.38;;;2.92;;
39346;SDS011;26262;49.836;6.632;2022-08-21T02:04:28;5.43;;;3.05;;
39346;SDS011;26262;49.836;6.632;2022-08-21T02:06:55;5.78;;;2.97;;
39346;SDS011;26262;49.836;6.632;2022-08-21T02:09:21;5.20;;;2.90;;
39346;SDS011;26262;49.836;6.632;2022-08-21T02:11:47;7.53;;;3.60;;
39346;SDS011;26262;49.836;6.632;2022-08-21T02:14:13;3.95;;;2.70;;
39346;SDS011;26262;49.836;6.632;2022-08-21T02:16:40;4.85;;;2.70;;
39346;SDS011;26262;49.836;6.632;2022-08-21T02:19:08;7.00;;;3.28;;
39346;SDS011;26262;49.836;6.632;2022-08-21T02:21:34;7.77;;;3.27;;
39346;SDS011;26262;49.836;6.632;2022-08-21T02:24:00;5.90;;;3.22;;
39346;SDS011;26262;49.836;6.632;2022-08-21T02:26:26;6.35;;;3.15;;
39346;SDS011;26262;49.836;6.632;2022-08-21T02:28:52;6.43;;;3.20;;
39346;SDS011;26262;49.836;6.632;2022-08-21T02:31:18;7.65;;;3.42;;
39346;SDS011;26262;49.836;6.632;2022-08-21T02:33:44;9.00;;;3.17;;
39346;SDS011;26262;49.836;6.632;2022-08-21T02:36:10;6.38;;;3.25;;
39346;SDS011;26262;49.836;6.632;2022-08-21T02:38:37;6.95;;;2.78;;
39346;SDS011;26262;49.836;6.632;2022-08-21T02:41:05;7.45;;;3.83;;
39346;SDS011;26262;49.836;6.632;2022-08-21T02:43:32;6.43;;;3.28;;
39346;SDS011;26262;49.836;6.632;2022-08-21T02:45:58;6.30;;;3.13;;
39346;SDS011;26262;49.836;6.632;2022-08-21T02:48:25;7.60;;;3.45;;
39346;SDS011;26262;49.836;6.632;2022-08-21T02:50:55;7.18;;;3.53;;
39346;SDS011;26262;49.836;6.632;2022-08-21T02:53:23;4.57;;;3.30;;
39346;SDS011;26262;49.836;6.632;2022-08-21T02:55:50;4.63;;;2.80;;
39346;SDS011;26262;49.836;6.632;2022-08-21T02:58:16;4.72;;;3.03;;
39346;SDS011;26262;49.836;6.632;2022-08-21T03:00:45;6.50;;;3.55;;
39346;SDS011;26262;49.836;6.632;2022-08-21T03:03:11;5.22;;;3.28;;
39346;SDS011;26262;49.836;6.632;2022-08-21T03:05:38;5.50;;;3.22;;
39346;SDS011;26262;49.836;6.632;2022-08-21T03:08:06;7.78;;;3.38;;
39346;SDS011;26262;49.836;6.632;2022-08-21T03:10:39;5.72;;;3.38;;
39346;SDS011;26262;49.836;6.632;2022-08-21T03:13:07;6.05;;;3.30;;
39346;SDS011;26262;49.836;6.632;2022-08-21T03:15:34;8.70;;;3.75;;
39346;SDS011;26262;49.836;6.632;2022-08-21T03:18:01;5.55;;;3.00;;
39346;SDS011;26262;49.836;6.632;2022-08-21T03:20:27;6.25;;;3.35;;
39346;SDS011;26262;49.836;6.632;2022-08-21T03:22:54;6.47;;;3.53;;
39346;SDS011;26262;49.836;6.632;2022-08-21T03:25:21;5.75;;;3.22;;
39346;SDS011;26262;49.836;6.632;2022-08-21T03:27:47;7.90;;;3.60;;
39346;SDS011;26262;49.836;6.632;2022-08-21T03:30:16;6.95;;;3.35;;
39346;SDS011;26262;49.836;6.632;2022-08-21T03:32:44;6.70;;;3.88;;
39346;SDS011;26262;49.836;6.632;2022-08-21T03:35:11;6.90;;;3.60;;
39346;SDS011;26262;49.836;6.632;2022-08-21T03:37:37;7.15;;;3.47;;
39346;SDS011;26262;49.836;6.632;2022-08-21T03:40:03;6.03;;;3.38;;
39346;SDS011;26262;49.836;6.632;2022-08-21T03:42:30;5.72;;;4.03;;
39346;SDS011;26262;49.836;6.632;2022-08-21T03:44:56;5.70;;;2.88;;
39346;SDS011;26262;49.836;6.632;2022-08-21T03:47:21;6.47;;;3.33;;
39346;SDS011;26262;49.836;6.632;2022-08-21T03:49:47;7.35;;;3.92;;
39346;SDS011;26262;49.836;6.632;2022-08-21T03:52:13;4.25;;;3.17;;
39346;SDS011;26262;49.836;6.632;2022-08-21T03:54:39;6.75;;;3.80;;
39346;SDS011;26262;49.836;6.632;2022-08-21T03:57:06;5.30;;;3.07;;
39346;SDS011;26262;49.836;6.632;2022-08-21T03:59:32;7.45;;;3.55;;
39346;SDS011;26262;49.836;6.632;2022-08-21T04:01:58;6.65;;;3.13;;
39346;SDS011;26262;49.836;6.632;2022-08-21T04:06:51;9.05;;;4.25;;
39346;SDS011;26262;49.836;6.632;2022-08-21T04:09:17;6.55;;;3.72;;
39346;SDS011;26262;49.836;6.632;2022-08-21T04:11:43;6.97;;;3.75;;
39346;SDS011;26262;49.836;6.632;2022-08-21T04:14:10;7.60;;;3.88;;
39346;SDS011;26262;49.836;6.632;2022-08-21T04:16:35;6.78;;;3.15;;
39346;SDS011;26262;49.836;6.632;2022-08-21T04:19:01;7.13;;;3.88;;
39346;SDS011;26262;49.836;6.632;2022-08-21T04:21:26;6.95;;;3.70;;
39346;SDS011;26262;49.836;6.632;2022-08-21T04:23:55;5.93;;;3.33;;
39346;SDS011;26262;49.836;6.632;2022-08-21T04:26:21;7.45;;;3.95;;
39346;SDS011;26262;49.836;6.632;2022-08-21T04:28:47;7.15;;;3.72;;
39346;SDS011;26262;49.836;6.632;2022-08-21T04:31:13;5.70;;;3.53;;
39346;SDS011;26262;49.836;6.632;2022-08-21T04:33:38;5.35;;;3.50;;
39346;SDS011;26262;49.836;6.632;2022-08-21T04:36:04;7.15;;;3.63;;
39346;SDS011;26262;49.836;6.632;2022-08-21T04:38:31;6.88;;;3.90;;
39346;SDS011;26262;49.836;6.632;2022-08-21T04:40:57;5.38;;;3.85;;
39346;SDS011;26262;49.836;6.632;2022-08-21T04:43:23;6.30;;;3.67;;
39346;SDS011;26262;49.836;6.632;2022-08-21T04:45:49;6.65;;;3.97;;
39346;SDS011;26262;49.836;6.632;2022-08-21T04:48:16;7.25;;;3.60;;
39346;SDS011;26262;49.836;6.632;2022-08-21T04:50:46;7.80;;;3.90;;
39346;SDS011;26262;49.836;6.632;2022-08-21T04:53:20;9.88;;;3.63;;
39346;SDS011;26262;49.836;6.632;2022-08-21T04:55:53;7.57;;;3.30;;
39346;SDS011;26262;49.836;6.632;2022-08-21T04:58:21;8.63;;;4.68;;
39346;SDS011;26262;49.836;6.632;2022-08-21T05:00:51;5.15;;;3.53;;
39346;SDS011;26262;49.836;6.632;2022-08-21T05:03:18;4.43;;;2.97;;
39346;SDS011;26262;49.836;6.632;2022-08-21T05:05:44;7.25;;;3.80;;
39346;SDS011;26262;49.836;6.632;2022-08-21T05:08:11;6.32;;;3.60;;
39346;SDS011;26262;49.836;6.632;2022-08-21T05:10:40;6.55;;;3.83;;
39346;SDS011;26262;49.836;6.632;2022-08-21T05:13:08;4.95;;;3.30;;
39346;SDS011;26262;49.836;6.632;2022-08-21T05:15:33;7.05;;;4.38;;
39346;SDS011;26262;49.836;6.632;2022-08-21T05:17:59;6.50;;;4.00;;
39346;SDS011;26262;49.836;6.632;2022-08-21T05:20:24;5.45;;;3.65;;
39346;SDS011;26262;49.836;6.632;2022-08-21T05:22:50;7.20;;;3.90;;
39346;SDS011;26262;49.836;6.632;2022-08-21T05:25:15;7.43;;;4.00;;
39346;SDS011;26262;49.836;6.632;2022-08-21T05:27:41;8.82;;;4.28;;
39346;SDS011;26262;49.836;6.632;2022-08-21T05:30:07;5.75;;;3.70;;
39346;SDS011;26262;49.836;6.632;2022-08-21T05:32:34;6.20;;;3.40;;
39346;SDS011;26262;49.836;6.632;2022-08-21T05:35:00;6.43;;;3.58;;
39346;SDS011;26262;49.836;6.632;2022-08-21T05:37:26;4.93;;;3.30;;
39346;SDS011;26262;49.836;6.632;2022-08-21T05:39:51;6.20;;;4.10;;
39346;SDS011;26262;49.836;6.632;2022-08-21T05:42:17;6.93;;;3.95;;
39346;SDS011;26262;49.836;6.632;2022-08-21T05:44:42;5.43;;;3.80;;
39346;SDS011;26262;49.836;6.632;2022-08-21T05:47:09;6.72;;;3.85;;
39346;SDS011;26262;49.836;6.632;2022-08-21T05:49:35;7.05;;;4.28;;
39346;SDS011;26262;49.836;6.632;2022-08-21T05:52:01;6.65;;;4.45;;
39346;SDS011;26262;49.836;6.632;2022-08-21T05:54:27;7.45;;;3.97;;
39346;SDS011;26262;49.836;6.632;2022-08-21T05:56:53;5.88;;;4.00;;
39346;SDS011;26262;49.836;6.632;2022-08-21T05:59:19;6.38;;;3.67;;
39346;SDS011;26262;49.836;6.632;2022-08-21T06:01:44;5.55;;;3.58;;
39346;SDS011;26262;49.836;6.632;2022-08-21T06:04:10;6.88;;;3.60;;
39346;SDS011;26262;49.836;6.632;2022-08-21T06:06:36;9.27;;;3.78;;
39346;SDS011;26262;49.836;6.632;2022-08-21T06:09:03;5.20;;;3.67;;
39346;SDS011;26262;49.836;6.632;2022-08-21T06:11:29;5.05;;;3.25;;
39346;SDS011;26262;49.836;6.632;2022-08-21T06:13:55;6.40;;;3.50;;
39346;SDS011;26262;49.836;6.632;2022-08-21T06:16:21;5.55;;;3.70;;
39346;SDS011;26262;49.836;6.632;2022-08-21T06:18:47;7.07;;;3.78;;
39346;SDS011;26262;49.836;6.632;2022-08-21T06:21:13;5.10;;;3.45;;
39346;SDS011;26262;49.836;6.632;2022-08-21T06:23:39;7.20;;;4.18;;
39346;SDS011;26262;49.836;6.632;2022-08-21T06:26:06;5.95;;;3.85;;
39346;SDS011;26262;49.836;6.632;2022-08-21T06:28:32;7.95;;;4.40;;
39346;SDS011;26262;49.836;6.632;2022-08-21T06:30:58;5.43;;;3.75;;
39346;SDS011;26262;49.836;6.632;2022-08-21T06:33:24;7.15;;;3.88;;
39346;SDS011;26262;49.836;6.632;2022-08-21T06:35:50;6.65;;;3.83;;
39346;SDS011;26262;49.836;6.632;2022-08-21T06:38:15;8.40;;;3.80;;
39346;SDS011;26262;49.836;6.632;2022-08-21T06:40:41;5.97;;;3.42;;
39346;SDS011;26262;49.836;6.632;2022-08-21T06:43:14;5.57;;;3.83;;
39346;SDS011;26262;49.836;6.632;2022-08-21T06:45:40;7.57;;;4.40;;
39346;SDS011;26262;49.836;6.632;2022-08-21T06:48:07;5.80;;;3.97;;
39346;SDS011;26262;49.836;6.632;2022-08-21T06:50:33;7.05;;;3.85;;
39346;SDS011;26262;49.836;6.632;2022-08-21T06:53:03;6.53;;;3.90;;
39346;SDS011;26262;49.836;6.632;2022-08-21T06:55:31;6.57;;;3.55;;
39346;SDS011;26262;49.836;6.632;2022-08-21T06:57:57;6.78;;;4.55;;
39346;SDS011;26262;49.836;6.632;2022-08-21T07:00:23;6.80;;;4.55;;
39346;SDS011;26262;49.836;6.632;2022-08-21T07:02:49;8.10;;;4.30;;
39346;SDS011;26262;49.836;6.632;2022-08-21T07:05:15;5.80;;;3.75;;
39346;SDS011;26262;49.836;6.632;2022-08-21T07:07:40;8.23;;;3.88;;
39346;SDS011;26262;49.836;6.632;2022-08-21T07:10:06;5.82;;;3.55;;
39346;SDS011;26262;49.836;6.632;2022-08-21T07:12:32;6.88;;;4.00;;
39346;SDS011;26262;49.836;6.632;2022-08-21T07:14:57;8.93;;;4.00;;
39346;SDS011;26262;49.836;6.632;2022-08-21T07:17:23;7.47;;;3.58;;
39346;SDS011;26262;49.836;6.632;2022-08-21T07:19:48;6.25;;;3.80;;
39346;SDS011;26262;49.836;6.632;2022-08-21T07:22:16;7.45;;;3.88;;
39346;SDS011;26262;49.836;6.632;2022-08-21T07:24:44;7.45;;;3.78;;
39346;SDS011;26262;49.836;6.632;2022-08-21T07:27:10;6.68;;;3.88;;
39346;SDS011;26262;49.836;6.632;2022-08-21T07:29:35;8.60;;;3.60;;
39346;SDS011;26262;49.836;6.632;2022-08-21T07:32:01;6.45;;;3.65;;
39346;SDS011;26262;49.836;6.632;2022-08-21T07:34:27;9.82;;;4.72;;
39346;SDS011;26262;49.836;6.632;2022-08-21T07:36:52;6.47;;;3.55;;
39346;SDS011;26262;49.836;6.632;2022-08-21T07:39:18;6.95;;;3.90;;
39346;SDS011;26262;49.836;6.632;2022-08-21T07:41:43;12.20;;;4.15;;
39346;SDS011;26262;49.836;6.632;2022-08-21T07:44:09;10.48;;;3.40;;
39346;SDS011;26262;49.836;6.632;2022-08-21T07:46:34;7.82;;;3.33;;
39346;SDS011;26262;49.836;6.632;2022-08-21T07:49:00;6.65;;;3.38;;
39346;SDS011;26262;49.836;6.632;2022-08-21T07:51:27;9.50;;;4.07;;
39346;SDS011;26262;49.836;6.632;2022-08-21T07:53:54;7.70;;;3.60;;
39346;SDS011;26262;49.836;6.632;2022-08-21T07:56:22;7.70;;;3.78;;
39346;SDS011;26262;49.836;6.632;2022-08-21T07:58:48;7.07;;;3.42;;
39346;SDS011;26262;49.836;6.632;2022-08-21T08:01:14;7.68;;;3.53;;
39346;SDS011;26262;49.836;6.632;2022-08-21T08:03:40;7.15;;;3.63;;
39346;SDS011;26262;49.836;6.632;2022-08-21T08:06:06;5.47;;;3.33;;
39346;SDS011;26262;49.836;6.632;2022-08-21T08:08:36;5.75;;;3.28;;
39346;SDS011;26262;49.836;6.632;2022-08-21T08:11:03;5.82;;;3.50;;
39346;SDS011;26262;49.836;6.632;2022-08-21T08:13:29;7.53;;;3.28;;
39346;SDS011;26262;49.836;6.632;2022-08-21T08:15:55;10.32;;;3.80;;
39346;SDS011;26262;49.836;6.632;2022-08-21T08:18:20;7.15;;;3.42;;
39346;SDS011;26262;49.836;6.632;2022-08-21T08:20:46;7.30;;;3.20;;
39346;SDS011;26262;49.836;6.632;2022-08-21T08:23:12;8.25;;;3.13;;
39346;SDS011;26262;49.836;6.632;2022-08-21T08:25:39;5.03;;;3.03;;
39346;SDS011;26262;49.836;6.632;2022-08-21T08:28:05;5.18;;;3.08;;
39346;SDS011;26262;49.836;6.632;2022-08-21T08:30:31;6.65;;;3.30;;
39346;SDS011;26262;49.836;6.632;2022-08-21T08:32:57;9.52;;;3.53;;
39346;SDS011;26262;49.836;6.632;2022-08-21T08:35:24;6.85;;;3.22;;
39346;SDS011;26262;49.836;6.632;2022-08-21T08:37:50;6.53;;;2.92;;
39346;SDS011;26262;49.836;6.632;2022-08-21T08:40:25;7.47;;;3.47;;
39346;SDS011;26262;49.836;6.632;2022-08-21T08:42:58;6.03;;;3.15;;
39346;SDS011;26262;49.836;6.632;2022-08-21T08:45:24;9.73;;;2.58;;
39346;SDS011;26262;49.836;6.632;2022-08-21T08:47:55;6.83;;;3.60;;
39346;SDS011;26262;49.836;6.632;2022-08-21T08:50:46;6.15;;;2.63;;
39346;SDS011;26262;49.836;6.632;2022-08-21T08:53:25;7.50;;;3.03;;
39346;SDS011;26262;49.836;6.632;2022-08-21T08:56:03;5.53;;;2.83;;
39346;SDS011;26262;49.836;6.632;2022-08-21T08:58:32;6.18;;;2.72;;
39346;SDS011;26262;49.836;6.632;2022-08-21T09:01:03;4.82;;;2.85;;
39346;SDS011;26262;49.836;6.632;2022-08-21T09:03:34;5.90;;;2.63;;
39346;SDS011;26262;49.836;6.632;2022-08-21T09:06:15;5.55;;;2.55;;
39346;SDS011;26262;49.836;6.632;2022-08-21T09:09:07;6.25;;;2.85;;
39346;SDS011;26262;49.836;6.632;2022-08-21T09:17:15;6.72;;;2.30;;
39346;SDS011;26262;49.836;6.632;2022-08-21T09:27:41;10.32;;;2.28;;
39346;SDS011;26262;49.836;6.632;2022-08-21T09:30:07;5.47;;;2.25;;
39346;SDS011;26262;49.836;6.632;2022-08-21T09:32:35;8.45;;;2.50;;
39346;SDS011;26262;49.836;6.632;2022-08-21T09:35:16;9.10;;;2.85;;
39346;SDS011;26262;49.836;6.632;2022-08-21T09:40:30;7.05;;;2.05;;
39346;SDS011;26262;49.836;6.632;2022-08-21T09:45:39;7.03;;;2.67;;
39346;SDS011;26262;49.836;6.632;2022-08-21T09:48:22;4.93;;;1.80;;
39346;SDS011;26262;49.836;6.632;2022-08-21T09:50:50;6.65;;;1.98;;
39346;SDS011;26262;49.836;6.632;2022-08-21T09:55:54;8.77;;;2.50;;
39346;SDS011;26262;49.836;6.632;2022-08-21T09:58:42;6.50;;;2.13;;
39346;SDS011;26262;49.836;6.632;2022-08-21T10:01:14;7.32;;;2.20;;
39346;SDS011;26262;49.836;6.632;2022-08-21T10:03:46;7.18;;;2.45;;
39346;SDS011;26262;49.836;6.632;2022-08-21T10:06:25;6.70;;;2.40;;
39346;SDS011;26262;49.836;6.632;2022-08-21T10:09:12;5.68;;;2.00;;
39346;SDS011;26262;49.836;6.632;2022-08-21T10:11:41;6.88;;;2.67;;
39346;SDS011;26262;49.836;6.632;2022-08-21T10:17:04;6.18;;;2.50;;
39346;SDS011;26262;49.836;6.632;2022-08-21T10:19:45;5.20;;;2.22;;
39346;SDS011;26262;49.836;6.632;2022-08-21T10:22:27;8.98;;;2.33;;
39346;SDS011;26262;49.836;6.632;2022-08-21T10:38:54;8.20;;;2.72;;
39346;SDS011;26262;49.836;6.632;2022-08-21T10:44:30;5.97;;;2.15;;
39346;SDS011;26262;49.836;6.632;2022-08-21T10:47:14;5.15;;;2.05;;
39346;SDS011;26262;49.836;6.632;2022-08-21T10:52:22;7.15;;;2.05;;
39346;SDS011;26262;49.836;6.632;2022-08-21T10:57:45;7.27;;;2.40;;
39346;SDS011;26262;49.836;6.632;2022-08-21T11:00:16;5.97;;;2.10;;
39346;SDS011;26262;49.836;6.632;2022-08-21T11:05:20;6.57;;;2.30;;
39346;SDS011;26262;49.836;6.632;2022-08-21T11:10:23;6.28;;;2.35;;
39346;SDS011;26262;49.836;6.632;2022-08-21T11:12:59;7.40;;;2.00;;
39346;SDS011;26262;49.836;6.632;2022-08-21T11:21:12;4.57;;;2.15;;
39346;SDS011;26262;49.836;6.632;2022-08-21T11:26:19;3.95;;;1.88;;
39346;SDS011;26262;49.836;6.632;2022-08-21T11:29:31;8.77;;;2.10;;
39346;SDS011;26262;49.836;6.632;2022-08-21T11:32:07;5.93;;;2.25;;
39346;SDS011;26262;49.836;6.632;2022-08-21T11:37:30;4.95;;;1.90;;
39346;SDS011;26262;49.836;6.632;2022-08-21T11:42:44;4.65;;;2.00;;
39346;SDS011;26262;49.836;6.632;2022-08-21T11:48:06;6.32;;;2.00;;
39346;SDS011;26262;49.836;6.632;2022-08-21T11:50:43;5.40;;;1.98;;
39346;SDS011;26262;49.836;6.632;2022-08-21T11:58:44;6.90;;;2.05;;
39346;SDS011;26262;49.836;6.632;2022-08-21T12:01:21;5.53;;;1.95;;
39346;SDS011;26262;49.836;6.632;2022-08-21T12:03:55;5.45;;;1.98;;
39346;SDS011;26262;49.836;6.632;2022-08-21T12:06:29;4.72;;;2.05;;
39346;SDS011;26262;49.836;6.632;2022-08-21T12:09:06;3.67;;;1.80;;
39346;SDS011;26262;49.836;6.632;2022-08-21T12:12:01;6.38;;;1.88;;
39346;SDS011;26262;49.836;6.632;2022-08-21T12:14:36;3.97;;;1.92;;
39346;SDS011;26262;49.836;6.632;2022-08-21T12:17:06;4.30;;;1.50;;
39346;SDS011;26262;49.836;6.632;2022-08-21T12:19:34;4.32;;;1.98;;
39346;SDS011;26262;49.836;6.632;2022-08-21T12:24:49;4.60;;;2.03;;
39346;SDS011;26262;49.836;6.632;2022-08-21T12:27:39;6.78;;;2.10;;
39346;SDS011;26262;49.836;6.632;2022-08-21T12:30:21;6.00;;;2.08;;
39346;SDS011;26262;49.836;6.632;2022-08-21T12:33:00;4.47;;;1.80;;
39346;SDS011;26262;49.836;6.632;2022-08-21T12:35:37;5.25;;;1.83;;
39346;SDS011;26262;49.836;6.632;2022-08-21T12:38:18;5.07;;;2.05;;
39346;SDS011;26262;49.836;6.632;2022-08-21T12:40:59;4.78;;;1.98;;
39346;SDS011;26262;49.836;6.632;2022-08-21T12:43:29;5.68;;;2.20;;
39346;SDS011;26262;49.836;6.632;2022-08-21T12:45:59;5.07;;;1.90;;
39346;SDS011;26262;49.836;6.632;2022-08-21T12:50:58;4.68;;;1.83;;
39346;SDS011;26262;49.836;6.632;2022-08-21T12:53:50;5.10;;;1.50;;
39346;SDS011;26262;49.836;6.632;2022-08-21T12:56:19;3.72;;;1.63;;
39346;SDS011;26262;49.836;6.632;2022-08-21T12:58:49;3.50;;;1.60;;
39346;SDS011;26262;49.836;6.632;2022-08-21T13:01:19;5.40;;;1.80;;
39346;SDS011;26262;49.836;6.632;2022-08-21T13:03:49;5.07;;;1.63;;
39346;SDS011;26262;49.836;6.632;2022-08-21T13:06:18;4.70;;;1.67;;
39346;SDS011;26262;49.836;6.632;2022-08-21T13:08:45;3.45;;;1.30;;
39346;SDS011;26262;49.836;6.632;2022-08-21T13:11:14;5.15;;;1.90;;
39346;SDS011;26262;49.836;6.632;2022-08-21T13:13:42;6.15;;;2.33;;
39346;SDS011;26262;49.836;6.632;2022-08-21T13:16:12;5.88;;;2.30;;
39346;SDS011;26262;49.836;6.632;2022-08-21T13:21:43;3.60;;;1.98;;
39346;SDS011;26262;49.836;6.632;2022-08-21T13:24:12;4.00;;;1.75;;
39346;SDS011;26262;49.836;6.632;2022-08-21T13:26:45;3.70;;;1.45;;
39346;SDS011;26262;49.836;6.632;2022-08-21T13:29:12;4.43;;;1.80;;
39346;SDS011;26262;49.836;6.632;2022-08-21T13:31:40;5.70;;;2.15;;
39346;SDS011;26262;49.836;6.632;2022-08-21T13:34:13;4.43;;;1.52;;
39346;SDS011;26262;49.836;6.632;2022-08-21T13:36:41;4.13;;;1.65;;
39346;SDS011;26262;49.836;6.632;2022-08-21T13:39:07;4.22;;;1.70;;
39346;SDS011;26262;49.836;6.632;2022-08-21T13:41:37;5.28;;;1.73;;
39346;SDS011;26262;49.836;6.632;2022-08-21T13:44:18;5.03;;;2.00;;
39346;SDS011;26262;49.836;6.632;2022-08-21T13:46:47;3.40;;;1.63;;
39346;SDS011;26262;49.836;6.632;2022-08-21T13:49:15;3.08;;;1.35;;
39346;SDS011;26262;49.836;6.632;2022-08-21T13:51:42;3.30;;;1.55;;
39346;SDS011;26262;49.836;6.632;2022-08-21T13:54:16;2.58;;;1.20;;
39346;SDS011;26262;49.836;6.632;2022-08-21T13:56:50;3.65;;;1.50;;
39346;SDS011;26262;49.836;6.632;2022-08-21T13:59:26;4.15;;;1.48;;
39346;SDS011;26262;49.836;6.632;2022-08-21T14:01:58;5.13;;;1.73;;
39346;SDS011;26262;49.836;6.632;2022-08-21T14:04:37;3.35;;;1.70;;
39346;SDS011;26262;49.836;6.632;2022-08-21T14:07:17;5.65;;;1.90;;
39346;SDS011;26262;49.836;6.632;2022-08-21T14:09:45;4.30;;;1.50;;
39346;SDS011;26262;49.836;6.632;2022-08-21T14:12:24;3.40;;;1.50;;
39346;SDS011;26262;49.836;6.632;2022-08-21T14:14:52;5.32;;;2.25;;
39346;SDS011;26262;49.836;6.632;2022-08-21T14:19:53;3.65;;;1.30;;
39346;SDS011;26262;49.836;6.632;2022-08-21T14:25:00;3.50;;;1.25;;
39346;SDS011;26262;49.836;6.632;2022-08-21T14:27:31;3.45;;;1.60;;
39346;SDS011;26262;49.836;6.632;2022-08-21T14:32:27;5.40;;;1.50;;
39346;SDS011;26262;49.836;6.632;2022-08-21T14:34:55;3.97;;;1.60;;
39346;SDS011;26262;49.836;6.632;2022-08-21T14:37:22;3.20;;;1.42;;
39346;SDS011;26262;49.836;6.632;2022-08-21T14:39:47;3.17;;;1.33;;
39346;SDS011;26262;49.836;6.632;2022-08-21T14:42:13;3.83;;;1.35;;
39346;SDS011;26262;49.836;6.632;2022-08-21T14:44:38;4.35;;;1.50;;
39346;SDS011;26262;49.836;6.632;2022-08-21T14:47:04;3.05;;;1.20;;
39346;SDS011;26262;49.836;6.632;2022-08-21T14:49:30;5.05;;;1.60;;
39346;SDS011;26262;49.836;6.632;2022-08-21T14:51:56;4.38;;;1.85;;
39346;SDS011;26262;49.836;6.632;2022-08-21T14:54:23;4.10;;;1.40;;
39346;SDS011;26262;49.836;6.632;2022-08-21T14:56:53;4.15;;;1.73;;
39346;SDS011;26262;49.836;6.632;2022-08-21T14:59:19;4.88;;;1.83;;
39346;SDS011;26262;49.836;6.632;2022-08-21T15:01:46;4.53;;;1.48;;
39346;SDS011;26262;49.836;6.632;2022-08-21T15:04:12;4.13;;;1.70;;
39346;SDS011;26262;49.836;6.632;2022-08-21T15:06:37;3.92;;;1.67;;
39346;SDS011;26262;49.836;6.632;2022-08-21T15:09:03;6.78;;;1.50;;
39346;SDS011;26262;49.836;6.632;2022-08-21T15:11:30;4.35;;;1.52;;
39346;SDS011;26262;49.836;6.632;2022-08-21T15:13:59;2.85;;;1.15;;
39346;SDS011;26262;49.836;6.632;2022-08-21T15:16:27;2.83;;;1.35;;
39346;SDS011;26262;49.836;6.632;2022-08-21T15:18:55;4.45;;;1.45;;
39346;SDS011;26262;49.836;6.632;2022-08-21T15:21:20;2.47;;;1.20;;
39346;SDS011;26262;49.836;6.632;2022-08-21T15:23:46;3.13;;;1.40;;
39346;SDS011;26262;49.836;6.632;2022-08-21T15:26:11;3.17;;;1.27;;
39346;SDS011;26262;49.836;6.632;2022-08-21T15:28:37;4.10;;;1.50;;
39346;SDS011;26262;49.836;6.632;2022-08-21T15:31:03;4.30;;;1.73;;
39346;SDS011;26262;49.836;6.632;2022-08-21T15:33:29;1.90;;;1.00;;
39346;SDS011;26262;49.836;6.632;2022-08-21T15:35:55;3.20;;;1.27;;
39346;SDS011;26262;49.836;6.632;2022-08-21T15:38:21;3.42;;;1.42;;
39346;SDS011;26262;49.836;6.632;2022-08-21T15:40:46;4.00;;;1.75;;
39346;SDS011;26262;49.836;6.632;2022-08-21T15:43:46;2.53;;;1.35;;
39346;SDS011;26262;49.836;6.632;2022-08-21T15:46:14;3.17;;;1.48;;
39346;SDS011;26262;49.836;6.632;2022-08-21T15:48:41;3.20;;;1.70;;
39346;SDS011;26262;49.836;6.632;2022-08-21T15:51:09;6.28;;;2.10;;
39346;SDS011;26262;49.836;6.632;2022-08-21T15:53:35;4.72;;;2.42;;
39346;SDS011;26262;49.836;6.632;2022-08-21T15:56:03;4.25;;;1.55;;
39346;SDS011;26262;49.836;6.632;2022-08-21T15:58:30;5.15;;;2.00;;
39346;SDS011;26262;49.836;6.632;2022-08-21T16:00:58;3.53;;;1.80;;
39346;SDS011;26262;49.836;6.632;2022-08-21T16:03:25;3.53;;;1.35;;
39346;SDS011;26262;49.836;6.632;2022-08-21T16:05:51;5.70;;;1.65;;
39346;SDS011;26262;49.836;6.632;2022-08-21T16:08:18;2.70;;;1.10;;
39346;SDS011;26262;49.836;6.632;2022-08-21T16:10:46;4.10;;;1.60;;
39346;SDS011;26262;49.836;6.632;2022-08-21T16:13:20;4.35;;;1.52;;
39346;SDS011;26262;49.836;6.632;2022-08-21T16:15:52;3.85;;;1.42;;
39346;SDS011;26262;49.836;6.632;2022-08-21T16:18:19;4.97;;;1.92;;
39346;SDS011;26262;49.836;6.632;2022-08-21T16:23:12;6.13;;;1.88;;
39346;SDS011;26262;49.836;6.632;2022-08-21T16:25:38;3.22;;;1.48;;
39346;SDS011;26262;49.836;6.632;2022-08-21T16:28:05;3.27;;;1.20;;
39346;SDS011;26262;49.836;6.632;2022-08-21T16:30:33;4.30;;;1.33;;
39346;SDS011;26262;49.836;6.632;2022-08-21T16:33:00;4.50;;;1.40;;
39346;SDS011;26262;49.836;6.632;2022-08-21T16:35:27;3.55;;;1.55;;